sensor_id;sensor_type;location;lat;lon;timestamp;temperature;humidity
20345;DHT22;10330;48.816;9.278;2022-10-24T05:21:41;17.90;99.90
20345;DHT22;10330;48.816;9.278;2022-10-24T05:24:07;17.90;99.90
20345;DHT22;10330;48.816;9.278;2022-10-24T05:26:34;17.90;99.90
20345;DHT22;10330;48.816;9.278;2022-10-24T05:29:00;17.80;99.90
20345;DHT22;10330;48.816;9.278;2022-10-24T05:31:26;17.80;99.90
20345;DHT22;10330;48.816;9.278;2022-10-24T05:33:53;17.80;99.90
20345;DHT22;10330;48.816;9.278;2022-10-24T05:36:19;17.80;99.90
20345;DHT22;10330;48.816;9.278;2022-10-24T05:38:45;17.80;99.90
20345;DHT22;10330;48.816;9.278;2022-10-24T05:41:11;17.70;99.90
20345;DHT22;10330;48.816;9.278;2022-10-24T05:43:37;17.70;99.90
20345;DHT22;10330;48.816;9.278;2022-10-24T05:46:04;17.70;99.90
20345;DHT22;10330;48.816;9.278;2022-10-24T05:48:31;17.60;99.90
20345;DHT22;10330;48.816;9.278;2022-10-24T05:50:57;17.50;99.90
20345;DHT22;10330;48.816;9.278;2022-10-24T05:53:25;17.50;99.90
20345;DHT22;10330;48.816;9.278;2022-10-24T05:55:51;17.50;99.90
20345;DHT22;10330;48.816;9.278;2022-10-24T05:58:18;17.40;99.90
20345;DHT22;10330;48.816;9.278;2022-10-24T06:00:47;17.40;99.90
20345;DHT22;10330;48.816;9.278;2022-10-24T06:03:13;17.40;99.90
20345;DHT22;10330;48.816;9.278;2022-10-24T06:05:40;17.40;99.90
20345;DHT22;10330;48.816;9.278;2022-10-24T06:08:06;17.40;99.90
20345;DHT22;10330;48.816;9.278;2022-10-24T06:10:33;17.40;99.90
20345;DHT22;10330;48.816;9.278;2022-10-24T06:12:59;17.40;99.90
20345;DHT22;10330;48.816;9.278;2022-10-24T06:15:26;17.40;99.90
20345;DHT22;10330;48.816;9.278;2022-10-24T06:17:52;17.30;99.90
20345;DHT22;10330;48.816;9.278;2022-10-24T06:20:18;17.00;99.90
20345;DHT22;10330;48.816;9.278;2022-10-24T06:22:46;16.80;99.90
20345;DHT22;10330;48.816;9.278;2022-10-24T06:25:13;16.50;99.90
20345;DHT22;10330;48.816;9.278;2022-10-24T06:27:40;16.30;99.90
20345;DHT22;10330;48.816;9.278;2022-10-24T06:30:07;16.20;99.90
20345;DHT22;10330;48.816;9.278;2022-10-24T06:32:35;16.20;99.90
20345;DHT22;10330;48.816;9.278;2022-10-24T06:35:01;16.10;99.90
20345;DHT22;10330;48.816;9.278;2022-10-24T06:37:27;16.10;99.90
20345;DHT22;10330;48.816;9.278;2022-10-24T06:39:55;16.10;99.90
20345;DHT22;10330;48.816;9.278;2022-10-24T06:42:21;16.10;99.90
20345;DHT22;10330;48.816;9.278;2022-10-24T06:44:47;16.10;99.90
20345;DHT22;10330;48.816;9.278;2022-10-24T06:47:13;16.10;99.90
20345;DHT22;10330;48.816;9.278;2022-10-24T06:49:39;16.10;99.90
20345;DHT22;10330;48.816;9.278;2022-10-24T06:52:06;16.20;99.90
20345;DHT22;10330;48.816;9.278;2022-10-24T06:54:32;16.20;99.90
20345;DHT22;10330;48.816;9.278;2022-10-24T06:57:00;16.20;99.90
20345;DHT22;10330;48.816;9.278;2022-10-24T06:59:26;16.30;99.90
20345;DHT22;10330;48.816;9.278;2022-10-24T07:01:52;16.30;99.90
20345;DHT22;10330;48.816;9.278;2022-10-24T07:04:18;16.30;99.90
20345;DHT22;10330;48.816;9.278;2022-10-24T07:06:45;16.30;99.90
20345;DHT22;10330;48.816;9.278;2022-10-24T07:09:11;16.30;99.90
20345;DHT22;10330;48.816;9.278;2022-10-24T07:11:37;16.30;99.90
20345;DHT22;10330;48.816;9.278;2022-10-24T07:14:04;16.20;99.90
20345;DHT22;10330;48.816;9.278;2022-10-24T07:16:31;16.30;99.90
20345;DHT22;10330;48.816;9.278;2022-10-24T07:18:57;16.20;99.90
20345;DHT22;10330;48.816;9.278;2022-10-24T07:21:26;16.20;99.90
20345;DHT22;10330;48.816;9.278;2022-10-24T07:23:53;16.20;99.90
20345;DHT22;10330;48.816;9.278;2022-10-24T07:26:21;16.20;99.90
20345;DHT22;10330;48.816;9.278;2022-10-24T07:28:48;16.20;99.90
20345;DHT22;10330;48.816;9.278;2022-10-24T07:31:20;16.20;99.90
20345;DHT22;10330;48.816;9.278;2022-10-24T07:33:47;16.20;99.90
20345;DHT22;10330;48.816;9.278;2022-10-24T07:36:16;16.20;99.90
20345;DHT22;10330;48.816;9.278;2022-10-24T07:38:43;16.20;99.90
20345;DHT22;10330;48.816;9.278;2022-10-24T07:41:09;16.30;99.90
20345;DHT22;10330;48.816;9.278;2022-10-24T07:43:36;16.30;99.90
20345;DHT22;10330;48.816;9.278;2022-10-24T07:46:07;16.40;99.90
20345;DHT22;10330;48.816;9.278;2022-10-24T07:48:34;16.30;99.90
20345;DHT22;10330;48.816;9.278;2022-10-24T07:51:04;16.30;99.90
20345;DHT22;10330;48.816;9.278;2022-10-24T07:53:31;16.30;99.90
20345;DHT22;10330;48.816;9.278;2022-10-24T07:55:58;16.40;99.90
20345;DHT22;10330;48.816;9.278;2022-10-24T07:58:25;16.40;99.90
20345;DHT22;10330;48.816;9.278;2022-10-24T08:00:52;16.50;99.90
20345;DHT22;10330;48.816;9.278;2022-10-24T08:03:18;16.50;99.90
20345;DHT22;10330;48.816;9.278;2022-10-24T08:05:45;16.50;99.90
20345;DHT22;10330;48.816;9.278;2022-10-24T08:08:12;16.50;99.90
20345;DHT22;10330;48.816;9.278;2022-10-24T08:10:38;16.40;99.90
20345;DHT22;10330;48.816;9.278;2022-10-24T08:13:04;16.50;99.90
20345;DHT22;10330;48.816;9.278;2022-10-24T08:15:30;16.40;99.90
20345;DHT22;10330;48.816;9.278;2022-10-24T08:17:56;16.40;99.90
20345;DHT22;10330;48.816;9.278;2022-10-24T08:20:22;16.30;99.90
20345;DHT22;10330;48.816;9.278;2022-10-24T08:22:51;16.30;99.90
20345;DHT22;10330;48.816;9.278;2022-10-24T08:25:18;16.30;99.90
20345;DHT22;10330;48.816;9.278;2022-10-24T08:27:44;16.30;99.90
20345;DHT22;10330;48.816;9.278;2022-10-24T08:30:11;16.40;99.90
20345;DHT22;10330;48.816;9.278;2022-10-24T08:32:37;16.30;99.90
20345;DHT22;10330;48.816;9.278;2022-10-24T08:35:05;16.20;99.90
20345;DHT22;10330;48.816;9.278;2022-10-24T08:37:35;16.20;99.90
20345;DHT22;10330;48.816;9.278;2022-10-24T08:40:06;16.20;99.90
20345;DHT22;10330;48.816;9.278;2022-10-24T08:42:34;16.20;99.90
20345;DHT22;10330;48.816;9.278;2022-10-24T08:45:01;16.20;99.90
20345;DHT22;10330;48.816;9.278;2022-10-24T08:50:31;16.30;99.90
20345;DHT22;10330;48.816;9.278;2022-10-24T08:53:13;16.30;99.90
20345;DHT22;10330;48.816;9.278;2022-10-24T08:55:48;16.30;99.90
20345;DHT22;10330;48.816;9.278;2022-10-24T08:58:32;16.30;99.90
20345;DHT22;10330;48.816;9.278;2022-10-24T09:01:01;16.30;99.90
20345;DHT22;10330;48.816;9.278;2022-10-24T09:03:42;16.30;99.90
20345;DHT22;10330;48.816;9.278;2022-10-24T09:06:16;16.20;99.90
20345;DHT22;10330;48.816;9.278;2022-10-24T09:08:54;16.20;99.90
20345;DHT22;10330;48.816;9.278;2022-10-24T09:14:29;16.20;99.90
20345;DHT22;10330;48.816;9.278;2022-10-24T09:19:57;16.30;99.90
20345;DHT22;10330;48.816;9.278;2022-10-24T09:22:26;16.30;99.90
20345;DHT22;10330;48.816;9.278;2022-10-24T09:25:15;16.40;99.90
20345;DHT22;10330;48.816;9.278;2022-10-24T09:27:42;16.50;99.90
20345;DHT22;10330;48.816;9.278;2022-10-24T09:30:17;16.60;99.90
20345;DHT22;10330;48.816;9.278;2022-10-24T09:32:43;16.60;99.90
20345;DHT22;10330;48.816;9.278;2022-10-24T09:35:24;16.60;99.90
20345;DHT22;10330;48.816;9.278;2022-10-24T09:40:53;16.70;99.90
20345;DHT22;10330;48.816;9.278;2022-10-24T09:43:28;16.60;99.90
20345;DHT22;10330;48.816;9.278;2022-10-24T09:46:10;16.60;99.90
20345;DHT22;10330;48.816;9.278;2022-10-24T09:56:40;16.70;99.90
20345;DHT22;10330;48.816;9.278;2022-10-24T10:01:44;16.70;99.90
20345;DHT22;10330;48.816;9.278;2022-10-24T10:04:17;16.60;99.90
20345;DHT22;10330;48.816;9.278;2022-10-24T10:06:48;16.70;99.90
20345;DHT22;10330;48.816;9.278;2022-10-24T10:09:26;16.70;99.90
20345;DHT22;10330;48.816;9.278;2022-10-24T10:11:57;16.70;99.90
20345;DHT22;10330;48.816;9.278;2022-10-24T10:14:27;16.70;99.90
20345;DHT22;10330;48.816;9.278;2022-10-24T10:16:59;16.80;99.90
20345;DHT22;10330;48.816;9.278;2022-10-24T10:19:26;16.70;99.90
20345;DHT22;10330;48.816;9.278;2022-10-24T10:21:58;16.80;99.90
20345;DHT22;10330;48.816;9.278;2022-10-24T10:33:12;17.00;99.90
20345;DHT22;10330;48.816;9.278;2022-10-24T10:36:04;17.00;99.90
20345;DHT22;10330;48.816;9.278;2022-10-24T10:47:38;17.10;99.90
20345;DHT22;10330;48.816;9.278;2022-10-24T10:50:55;17.10;99.90
20345;DHT22;10330;48.816;9.278;2022-10-24T11:04:26;17.10;99.90
20345;DHT22;10330;48.816;9.278;2022-10-24T11:07:16;17.10;99.90
20345;DHT22;10330;48.816;9.278;2022-10-24T11:09:47;17.10;99.90
20345;DHT22;10330;48.816;9.278;2022-10-24T11:12:27;17.10;99.90
20345;DHT22;10330;48.816;9.278;2022-10-24T11:17:54;17.20;99.90
20345;DHT22;10330;48.816;9.278;2022-10-24T11:20:33;17.20;99.90
20345;DHT22;10330;48.816;9.278;2022-10-24T11:36:35;17.20;99.90
20345;DHT22;10330;48.816;9.278;2022-10-24T11:39:17;17.20;99.90
20345;DHT22;10330;48.816;9.278;2022-10-24T11:42:00;17.20;99.90
20345;DHT22;10330;48.816;9.278;2022-10-24T11:52:37;17.20;99.90
20345;DHT22;10330;48.816;9.278;2022-10-24T11:55:29;17.30;99.90
20345;DHT22;10330;48.816;9.278;2022-10-24T11:58:02;17.30;99.90
20345;DHT22;10330;48.816;9.278;2022-10-24T12:00:36;17.40;99.90
20345;DHT22;10330;48.816;9.278;2022-10-24T12:05:58;17.40;99.90
20345;DHT22;10330;48.816;9.278;2022-10-24T12:11:38;17.40;99.90
20345;DHT22;10330;48.816;9.278;2022-10-24T12:14:15;17.40;99.90
20345;DHT22;10330;48.816;9.278;2022-10-24T12:19:30;17.40;99.90
20345;DHT22;10330;48.816;9.278;2022-10-24T12:21:59;17.40;99.90
20345;DHT22;10330;48.816;9.278;2022-10-24T12:24:34;17.40;99.90
20345;DHT22;10330;48.816;9.278;2022-10-24T12:27:07;17.40;99.90
20345;DHT22;10330;48.816;9.278;2022-10-24T12:29:43;17.40;99.90
20345;DHT22;10330;48.816;9.278;2022-10-24T12:32:44;17.40;99.90
20345;DHT22;10330;48.816;9.278;2022-10-24T12:44:34;17.50;99.90
20345;DHT22;10330;48.816;9.278;2022-10-24T12:49:53;17.50;99.90
20345;DHT22;10330;48.816;9.278;2022-10-24T12:54:58;17.40;99.90
20345;DHT22;10330;48.816;9.278;2022-10-24T12:57:31;17.50;99.90
20345;DHT22;10330;48.816;9.278;2022-10-24T13:00:01;17.50;99.90
20345;DHT22;10330;48.816;9.278;2022-10-24T13:05:02;17.70;99.90
20345;DHT22;10330;48.816;9.278;2022-10-24T13:10:46;17.80;99.90
20345;DHT22;10330;48.816;9.278;2022-10-24T13:13:37;17.80;99.90
20345;DHT22;10330;48.816;9.278;2022-10-24T13:19:17;17.90;99.90
20345;DHT22;10330;48.816;9.278;2022-10-24T13:21:52;17.80;99.90
20345;DHT22;10330;48.816;9.278;2022-10-24T13:24:35;17.90;99.90
20345;DHT22;10330;48.816;9.278;2022-10-24T13:37:36;17.80;99.90
20345;DHT22;10330;48.816;9.278;2022-10-24T13:42:42;17.90;99.90
20345;DHT22;10330;48.816;9.278;2022-10-24T13:45:29;17.90;99.90
20345;DHT22;10330;48.816;9.278;2022-10-24T13:48:06;17.90;99.90
20345;DHT22;10330;48.816;9.278;2022-10-24T13:50:38;17.80;99.90
20345;DHT22;10330;48.816;9.278;2022-10-24T13:53:17;17.90;99.90
20345;DHT22;10330;48.816;9.278;2022-10-24T13:55:52;17.80;99.90
20345;DHT22;10330;48.816;9.278;2022-10-24T13:58:22;17.80;99.90
20345;DHT22;10330;48.816;9.278;2022-10-24T14:01:02;17.80;99.90
20345;DHT22;10330;48.816;9.278;2022-10-24T14:03:30;17.70;99.90
20345;DHT22;10330;48.816;9.278;2022-10-24T14:06:03;17.70;99.90
20345;DHT22;10330;48.816;9.278;2022-10-24T14:08:56;17.70;99.90
20345;DHT22;10330;48.816;9.278;2022-10-24T14:11:26;17.70;99.90
20345;DHT22;10330;48.816;9.278;2022-10-24T14:13:56;17.70;99.90
20345;DHT22;10330;48.816;9.278;2022-10-24T14:16:26;17.70;99.90
20345;DHT22;10330;48.816;9.278;2022-10-24T14:19:11;17.70;99.90
20345;DHT22;10330;48.816;9.278;2022-10-24T14:21:42;17.60;99.90
20345;DHT22;10330;48.816;9.278;2022-10-24T14:24:16;17.60;99.90
20345;DHT22;10330;48.816;9.278;2022-10-24T14:26:43;17.50;99.90
20345;DHT22;10330;48.816;9.278;2022-10-24T14:29:25;17.50;99.90
20345;DHT22;10330;48.816;9.278;2022-10-24T14:32:11;17.50;99.90
20345;DHT22;10330;48.816;9.278;2022-10-24T14:34:39;17.50;99.90
20345;DHT22;10330;48.816;9.278;2022-10-24T14:37:40;17.50;99.90
20345;DHT22;10330;48.816;9.278;2022-10-24T14:40:13;17.50;99.90
20345;DHT22;10330;48.816;9.278;2022-10-24T14:42:40;17.50;99.90
20345;DHT22;10330;48.816;9.278;2022-10-24T14:45:24;17.50;99.90
20345;DHT22;10330;48.816;9.278;2022-10-24T14:47:53;17.40;99.90
20345;DHT22;10330;48.816;9.278;2022-10-24T14:50:37;17.50;99.90
20345;DHT22;10330;48.816;9.278;2022-10-24T14:53:04;17.80;99.90
20345;DHT22;10330;48.816;9.278;2022-10-24T14:55:31;18.30;99.90
20345;DHT22;10330;48.816;9.278;2022-10-24T14:57:57;18.50;99.90
20345;DHT22;10330;48.816;9.278;2022-10-24T15:00:34;18.70;99.90
20345;DHT22;10330;48.816;9.278;2022-10-24T15:03:13;18.80;99.90
20345;DHT22;10330;48.816;9.278;2022-10-24T15:05:51;18.90;99.90
20345;DHT22;10330;48.816;9.278;2022-10-24T15:08:27;18.70;99.90
20345;DHT22;10330;48.816;9.278;2022-10-24T15:11:20;18.60;99.90
20345;DHT22;10330;48.816;9.278;2022-10-24T15:13:51;18.40;99.90
20345;DHT22;10330;48.816;9.278;2022-10-24T15:16:34;18.30;99.90
20345;DHT22;10330;48.816;9.278;2022-10-24T15:19:01;18.20;99.90
20345;DHT22;10330;48.816;9.278;2022-10-24T15:21:39;18.10;99.90
20345;DHT22;10330;48.816;9.278;2022-10-24T15:24:06;18.00;99.90
20345;DHT22;10330;48.816;9.278;2022-10-24T15:26:37;17.90;99.90
20345;DHT22;10330;48.816;9.278;2022-10-24T15:31:42;17.70;99.90
20345;DHT22;10330;48.816;9.278;2022-10-24T15:34:13;17.80;99.90
20345;DHT22;10330;48.816;9.278;2022-10-24T15:36:41;17.60;99.90
20345;DHT22;10330;48.816;9.278;2022-10-24T15:39:20;17.60;99.90
20345;DHT22;10330;48.816;9.278;2022-10-24T15:41:47;17.50;99.90
20345;DHT22;10330;48.816;9.278;2022-10-24T15:44:18;17.50;99.90
20345;DHT22;10330;48.816;9.278;2022-10-24T15:46:46;17.40;99.90
20345;DHT22;10330;48.816;9.278;2022-10-24T15:49:13;17.40;99.90
20345;DHT22;10330;48.816;9.278;2022-10-24T15:51:41;17.40;99.90
20345;DHT22;10330;48.816;9.278;2022-10-24T15:54:11;17.30;99.90
20345;DHT22;10330;48.816;9.278;2022-10-24T15:56:37;17.20;99.90
20345;DHT22;10330;48.816;9.278;2022-10-24T15:59:04;17.10;99.90
20345;DHT22;10330;48.816;9.278;2022-10-24T16:01:32;17.20;99.90
20345;DHT22;10330;48.816;9.278;2022-10-24T16:03:59;17.10;99.90
20345;DHT22;10330;48.816;9.278;2022-10-24T16:06:26;17.10;99.90
20345;DHT22;10330;48.816;9.278;2022-10-24T16:08:54;17.10;99.90
20345;DHT22;10330;48.816;9.278;2022-10-24T16:11:20;17.00;99.90
20345;DHT22;10330;48.816;9.278;2022-10-24T16:13:47;17.10;99.90
20345;DHT22;10330;48.816;9.278;2022-10-24T16:16:13;17.10;99.90
20345;DHT22;10330;48.816;9.278;2022-10-24T16:18:40;17.00;99.90
20345;DHT22;10330;48.816;9.278;2022-10-24T16:21:06;17.00;99.90
20345;DHT22;10330;48.816;9.278;2022-10-24T16:23:33;17.00;99.90
20345;DHT22;10330;48.816;9.278;2022-10-24T16:25:59;17.00;99.90
20345;DHT22;10330;48.816;9.278;2022-10-24T16:28:25;16.90;99.90
20345;DHT22;10330;48.816;9.278;2022-10-24T16:30:53;16.90;99.90
20345;DHT22;10330;48.816;9.278;2022-10-24T16:33:20;17.00;99.90
20345;DHT22;10330;48.816;9.278;2022-10-24T16:35:47;16.90;99.90
20345;DHT22;10330;48.816;9.278;2022-10-24T16:38:14;16.80;99.90
20345;DHT22;10330;48.816;9.278;2022-10-24T16:40:42;16.80;99.90
20345;DHT22;10330;48.816;9.278;2022-10-24T16:43:11;16.80;99.90
20345;DHT22;10330;48.816;9.278;2022-10-24T16:45:37;16.70;99.90
20345;DHT22;10330;48.816;9.278;2022-10-24T16:48:03;16.70;99.90
20345;DHT22;10330;48.816;9.278;2022-10-24T16:50:30;16.70;99.90
20345;DHT22;10330;48.816;9.278;2022-10-24T16:53:04;16.60;99.90
20345;DHT22;10330;48.816;9.278;2022-10-24T16:55:31;16.60;99.90
20345;DHT22;10330;48.816;9.278;2022-10-24T16:57:58;16.70;99.90
20345;DHT22;10330;48.816;9.278;2022-10-24T17:00:25;16.60;99.90
20345;DHT22;10330;48.816;9.278;2022-10-24T17:02:53;16.70;99.90
20345;DHT22;10330;48.816;9.278;2022-10-24T17:05:23;16.70;99.90
20345;DHT22;10330;48.816;9.278;2022-10-24T17:07:49;16.70;99.90
20345;DHT22;10330;48.816;9.278;2022-10-24T17:10:16;16.60;99.90
20345;DHT22;10330;48.816;9.278;2022-10-24T17:12:44;16.60;99.90
20345;DHT22;10330;48.816;9.278;2022-10-24T17:15:14;16.50;99.90
20345;DHT22;10330;48.816;9.278;2022-10-24T17:17:41;16.50;99.90
20345;DHT22;10330;48.816;9.278;2022-10-24T17:20:08;16.50;99.90
20345;DHT22;10330;48.816;9.278;2022-10-24T17:22:37;16.50;99.90
20345;DHT22;10330;48.816;9.278;2022-10-24T17:25:04;16.50;99.90
20345;DHT22;10330;48.816;9.278;2022-10-24T17:27:31;16.50;99.90
20345;DHT22;10330;48.816;9.278;2022-10-24T17:29:57;16.50;99.90
20345;DHT22;10330;48.816;9.278;2022-10-24T17:32:24;16.50;99.90
20345;DHT22;10330;48.816;9.278;2022-10-24T17:34:50;16.40;99.90
20345;DHT22;10330;48.816;9.278;2022-10-24T17:37:27;16.40;99.90
20345;DHT22;10330;48.816;9.278;2022-10-24T17:40:19;16.40;99.90
20345;DHT22;10330;48.816;9.278;2022-10-24T17:42:45;16.40;99.90
20345;DHT22;10330;48.816;9.278;2022-10-24T17:45:17;16.30;99.90
20345;DHT22;10330;48.816;9.278;2022-10-24T17:47:44;16.30;99.90
20345;DHT22;10330;48.816;9.278;2022-10-24T17:50:12;16.40;99.90
20345;DHT22;10330;48.816;9.278;2022-10-24T17:52:38;16.30;99.90
20345;DHT22;10330;48.816;9.278;2022-10-24T17:55:22;16.30;99.90
20345;DHT22;10330;48.816;9.278;2022-10-24T17:57:48;16.30;99.90
20345;DHT22;10330;48.816;9.278;2022-10-24T18:00:15;16.30;99.90
20345;DHT22;10330;48.816;9.278;2022-10-24T18:02:48;16.30;99.90
20345;DHT22;10330;48.816;9.278;2022-10-24T18:05:16;16.30;99.90
20345;DHT22;10330;48.816;9.278;2022-10-24T18:07:43;16.30;99.90
20345;DHT22;10330;48.816;9.278;2022-10-24T18:10:10;16.30;99.90
20345;DHT22;10330;48.816;9.278;2022-10-24T18:12:37;16.30;99.90
20345;DHT22;10330;48.816;9.278;2022-10-24T18:15:07;16.30;99.90
20345;DHT22;10330;48.816;9.278;2022-10-24T18:17:34;16.20;99.90
20345;DHT22;10330;48.816;9.278;2022-10-24T18:20:01;16.10;99.90
20345;DHT22;10330;48.816;9.278;2022-10-24T18:22:32;15.30;99.90
20345;DHT22;10330;48.816;9.278;2022-10-24T18:25:00;12.40;99.90
20345;DHT22;10330;48.816;9.278;2022-10-24T18:27:27;11.30;99.90
20345;DHT22;10330;48.816;9.278;2022-10-24T18:29:53;11.10;99.90
20345;DHT22;10330;48.816;9.278;2022-10-24T18:32:19;11.20;99.90
20345;DHT22;10330;48.816;9.278;2022-10-24T18:34:45;11.30;99.90
20345;DHT22;10330;48.816;9.278;2022-10-24T18:37:12;11.50;99.90
20345;DHT22;10330;48.816;9.278;2022-10-24T18:39:38;11.50;99.90
20345;DHT22;10330;48.816;9.278;2022-10-24T18:42:27;11.60;99.90
20345;DHT22;10330;48.816;9.278;2022-10-24T18:44:55;11.70;99.90
20345;DHT22;10330;48.816;9.278;2022-10-24T18:47:21;11.80;99.90
20345;DHT22;10330;48.816;9.278;2022-10-24T18:49:48;11.80;99.90
20345;DHT22;10330;48.816;9.278;2022-10-24T18:55:21;12.00;99.90
20345;DHT22;10330;48.816;9.278;2022-10-24T18:57:48;12.20;99.90
20345;DHT22;10330;48.816;9.278;2022-10-24T19:00:17;12.20;99.90
20345;DHT22;10330;48.816;9.278;2022-10-24T19:08:40;12.40;99.90
20345;DHT22;10330;48.816;9.278;2022-10-24T19:11:22;12.40;99.90
20345;DHT22;10330;48.816;9.278;2022-10-24T19:13:49;12.40;99.90
20345;DHT22;10330;48.816;9.278;2022-10-24T19:16:23;12.50;99.90
20345;DHT22;10330;48.816;9.278;2022-10-24T19:18:55;12.50;99.90
20345;DHT22;10330;48.816;9.278;2022-10-24T19:21:22;12.60;99.90
20345;DHT22;10330;48.816;9.278;2022-10-24T19:23:49;12.70;99.90
20345;DHT22;10330;48.816;9.278;2022-10-24T19:26:15;12.60;99.90
20345;DHT22;10330;48.816;9.278;2022-10-24T19:28:41;12.70;99.90
20345;DHT22;10330;48.816;9.278;2022-10-24T19:31:08;12.70;99.90
20345;DHT22;10330;48.816;9.278;2022-10-24T19:33:34;12.70;99.90
20345;DHT22;10330;48.816;9.278;2022-10-24T19:36:02;12.80;99.90
20345;DHT22;10330;48.816;9.278;2022-10-24T19:38:29;12.80;99.90
20345;DHT22;10330;48.816;9.278;2022-10-24T19:40:55;12.70;99.90
20345;DHT22;10330;48.816;9.278;2022-10-24T19:43:25;12.80;99.90
20345;DHT22;10330;48.816;9.278;2022-10-24T19:45:51;12.80;99.90
20345;DHT22;10330;48.816;9.278;2022-10-24T19:48:21;12.90;99.90
20345;DHT22;10330;48.816;9.278;2022-10-24T19:50:48;12.80;99.90
20345;DHT22;10330;48.816;9.278;2022-10-24T19:53:15;12.80;99.90
20345;DHT22;10330;48.816;9.278;2022-10-24T19:55:41;12.80;99.90
20345;DHT22;10330;48.816;9.278;2022-10-24T19:58:09;12.70;99.90
20345;DHT22;10330;48.816;9.278;2022-10-24T20:00:36;12.80;99.90
20345;DHT22;10330;48.816;9.278;2022-10-24T20:03:02;12.80;99.90
20345;DHT22;10330;48.816;9.278;2022-10-24T20:05:29;12.90;99.90
20345;DHT22;10330;48.816;9.278;2022-10-24T20:07:56;12.80;99.90
20345;DHT22;10330;48.816;9.278;2022-10-24T20:10:23;12.90;99.90
20345;DHT22;10330;48.816;9.278;2022-10-24T20:12:50;13.00;99.90
20345;DHT22;10330;48.816;9.278;2022-10-24T20:15:16;13.00;99.90
20345;DHT22;10330;48.816;9.278;2022-10-24T20:17:44;13.00;99.90
20345;DHT22;10330;48.816;9.278;2022-10-24T20:20:11;13.00;99.90
20345;DHT22;10330;48.816;9.278;2022-10-24T20:22:38;13.10;99.90
20345;DHT22;10330;48.816;9.278;2022-10-24T20:25:05;13.10;99.90
20345;DHT22;10330;48.816;9.278;2022-10-24T20:27:32;13.10;99.90
20345;DHT22;10330;48.816;9.278;2022-10-24T20:29:58;13.10;99.90
20345;DHT22;10330;48.816;9.278;2022-10-24T20:32:24;13.10;99.90
20345;DHT22;10330;48.816;9.278;2022-10-24T20:34:50;13.20;99.90
20345;DHT22;10330;48.816;9.278;2022-10-24T20:37:17;13.30;99.90
20345;DHT22;10330;48.816;9.278;2022-10-24T20:39:43;13.30;99.90
20345;DHT22;10330;48.816;9.278;2022-10-24T20:42:09;13.20;99.90
20345;DHT22;10330;48.816;9.278;2022-10-24T20:44:35;13.20;99.90
20345;DHT22;10330;48.816;9.278;2022-10-24T20:47:01;13.10;99.90
20345;DHT22;10330;48.816;9.278;2022-10-24T20:49:28;13.20;99.90
20345;DHT22;10330;48.816;9.278;2022-10-24T20:51:54;13.10;99.90
20345;DHT22;10330;48.816;9.278;2022-10-24T20:54:20;13.10;99.90
20345;DHT22;10330;48.816;9.278;2022-10-24T20:56:46;13.00;99.90
20345;DHT22;10330;48.816;9.278;2022-10-24T20:59:12;13.00;99.90
20345;DHT22;10330;48.816;9.278;2022-10-24T21:01:39;13.00;99.90
20345;DHT22;10330;48.816;9.278;2022-10-24T21:04:05;13.00;99.90
20345;DHT22;10330;48.816;9.278;2022-10-24T21:06:33;13.00;99.90
20345;DHT22;10330;48.816;9.278;2022-10-24T21:09:02;13.00;99.90
20345;DHT22;10330;48.816;9.278;2022-10-24T21:11:29;13.00;99.90
20345;DHT22;10330;48.816;9.278;2022-10-24T21:14:04;13.00;99.90
20345;DHT22;10330;48.816;9.278;2022-10-24T21:16:32;13.00;99.90
20345;DHT22;10330;48.816;9.278;2022-10-24T21:18:58;12.90;99.90
20345;DHT22;10330;48.816;9.278;2022-10-24T21:21:25;12.90;99.90
20345;DHT22;10330;48.816;9.278;2022-10-24T21:23:53;12.90;99.90
20345;DHT22;10330;48.816;9.278;2022-10-24T21:26:20;12.90;99.90
20345;DHT22;10330;48.816;9.278;2022-10-24T21:28:47;12.80;99.90
20345;DHT22;10330;48.816;9.278;2022-10-24T21:31:16;12.80;99.90
20345;DHT22;10330;48.816;9.278;2022-10-24T21:33:43;12.70;99.90
20345;DHT22;10330;48.816;9.278;2022-10-24T21:36:17;12.70;99.90
20345;DHT22;10330;48.816;9.278;2022-10-24T21:38:50;12.70;99.90
20345;DHT22;10330;48.816;9.278;2022-10-24T21:41:18;12.70;99.90
20345;DHT22;10330;48.816;9.278;2022-10-24T21:43:44;12.70;99.90
20345;DHT22;10330;48.816;9.278;2022-10-24T21:46:16;12.70;99.90
20345;DHT22;10330;48.816;9.278;2022-10-24T21:48:44;12.80;99.90
20345;DHT22;10330;48.816;9.278;2022-10-24T21:51:19;12.70;99.90
20345;DHT22;10330;48.816;9.278;2022-10-24T21:53:47;12.70;99.90
20345;DHT22;10330;48.816;9.278;2022-10-24T21:56:17;12.60;99.90
20345;DHT22;10330;48.816;9.278;2022-10-24T21:58:52;12.60;99.90
20345;DHT22;10330;48.816;9.278;2022-10-24T22:01:21;12.50;99.90
20345;DHT22;10330;48.816;9.278;2022-10-24T22:03:51;12.60;99.90
20345;DHT22;10330;48.816;9.278;2022-10-24T22:06:18;12.50;99.90
20345;DHT22;10330;48.816;9.278;2022-10-24T22:08:45;12.50;99.90
20345;DHT22;10330;48.816;9.278;2022-10-24T22:11:24;12.60;99.90
20345;DHT22;10330;48.816;9.278;2022-10-24T22:13:51;12.60;99.90
20345;DHT22;10330;48.816;9.278;2022-10-24T22:16:21;12.50;99.90
20345;DHT22;10330;48.816;9.278;2022-10-24T22:18:48;12.50;99.90
20345;DHT22;10330;48.816;9.278;2022-10-24T22:21:27;12.50;99.90
20345;DHT22;10330;48.816;9.278;2022-10-24T22:23:55;12.50;99.90
20345;DHT22;10330;48.816;9.278;2022-10-24T22:26:22;12.40;99.90
20345;DHT22;10330;48.816;9.278;2022-10-24T22:28:48;12.50;99.90
20345;DHT22;10330;48.816;9.278;2022-10-24T22:31:20;12.40;99.90
20345;DHT22;10330;48.816;9.278;2022-10-24T22:41:20;12.40;99.90
20345;DHT22;10330;48.816;9.278;2022-10-24T22:43:53;12.40;99.90
20345;DHT22;10330;48.816;9.278;2022-10-24T22:52:24;12.40;99.90
20345;DHT22;10330;48.816;9.278;2022-10-24T22:55:23;12.50;99.90
20345;DHT22;10330;48.816;9.278;2022-10-24T22:57:53;12.50;99.90
20345;DHT22;10330;48.816;9.278;2022-10-24T23:00:20;12.50;99.90
20345;DHT22;10330;48.816;9.278;2022-10-24T23:03:05;12.40;99.90
20345;DHT22;10330;48.816;9.278;2022-10-24T23:06:06;12.50;99.90
20345;DHT22;10330;48.816;9.278;2022-10-24T23:08:43;12.40;99.90
20345;DHT22;10330;48.816;9.278;2022-10-24T23:22:39;12.40;99.90
20345;DHT22;10330;48.816;9.278;2022-10-24T23:25:08;12.30;99.90
20345;DHT22;10330;48.816;9.278;2022-10-24T23:27:37;12.30;99.90
20345;DHT22;10330;48.816;9.278;2022-10-24T23:30:12;12.30;99.90
20345;DHT22;10330;48.816;9.278;2022-10-24T23:32:39;12.30;99.90
20345;DHT22;10330;48.816;9.278;2022-10-24T23:35:06;12.40;99.90
20345;DHT22;10330;48.816;9.278;2022-10-24T23:37:39;12.30;99.90
20345;DHT22;10330;48.816;9.278;2022-10-24T23:42:34;12.40;99.90
20345;DHT22;10330;48.816;9.278;2022-10-24T23:45:01;12.30;99.90
20345;DHT22;10330;48.816;9.278;2022-10-24T23:47:40;12.30;99.90
20345;DHT22;10330;48.816;9.278;2022-10-24T23:55:41;12.30;99.90